sensor_id;sensor_type;location;lat;lon;timestamp;temperature;humidity
53410;DHT22;66590;50.734;4.246;2023-02-13T00:00:24;6.10;99.90
53410;DHT22;66590;50.734;4.246;2023-02-13T00:02:51;6.10;99.90
53410;DHT22;66590;50.734;4.246;2023-02-13T00:05:18;6.00;99.90
53410;DHT22;66590;50.734;4.246;2023-02-13T00:07:46;6.00;99.90
53410;DHT22;66590;50.734;4.246;2023-02-13T00:10:14;5.90;99.90
53410;DHT22;66590;50.734;4.246;2023-02-13T00:12:42;5.90;99.90
53410;DHT22;66590;50.734;4.246;2023-02-13T00:15:09;5.90;99.90
53410;DHT22;66590;50.734;4.246;2023-02-13T00:17:37;6.00;99.90
53410;DHT22;66590;50.734;4.246;2023-02-13T00:20:06;5.80;99.90
53410;DHT22;66590;50.734;4.246;2023-02-13T00:22:34;5.80;99.90
53410;DHT22;66590;50.734;4.246;2023-02-13T00:25:01;5.80;99.90
53410;DHT22;66590;50.734;4.246;2023-02-13T00:27:28;5.80;99.90
53410;DHT22;66590;50.734;4.246;2023-02-13T00:29:56;5.80;99.90
53410;DHT22;66590;50.734;4.246;2023-02-13T00:32:23;5.70;99.90
53410;DHT22;66590;50.734;4.246;2023-02-13T00:34:51;5.60;99.90
53410;DHT22;66590;50.734;4.246;2023-02-13T00:37:18;5.50;99.90
53410;DHT22;66590;50.734;4.246;2023-02-13T00:39:45;5.60;99.90
53410;DHT22;66590;50.734;4.246;2023-02-13T00:42:12;5.50;99.90
53410;DHT22;66590;50.734;4.246;2023-02-13T00:44:39;5.40;99.90
53410;DHT22;66590;50.734;4.246;2023-02-13T00:47:06;5.40;99.90
53410;DHT22;66590;50.734;4.246;2023-02-13T00:49:34;5.40;99.90
53410;DHT22;66590;50.734;4.246;2023-02-13T00:52:03;5.40;99.90
53410;DHT22;66590;50.734;4.246;2023-02-13T00:54:30;5.40;99.90
53410;DHT22;66590;50.734;4.246;2023-02-13T00:56:57;5.30;99.90
53410;DHT22;66590;50.734;4.246;2023-02-13T00:59:24;5.30;99.90
53410;DHT22;66590;50.734;4.246;2023-02-13T01:01:52;5.40;99.90
53410;DHT22;66590;50.734;4.246;2023-02-13T01:04:19;5.50;99.90
53410;DHT22;66590;50.734;4.246;2023-02-13T01:06:46;5.50;99.90
53410;DHT22;66590;50.734;4.246;2023-02-13T01:09:14;5.30;99.90
53410;DHT22;66590;50.734;4.246;2023-02-13T01:11:41;5.40;99.90
53410;DHT22;66590;50.734;4.246;2023-02-13T01:14:08;5.30;99.90
53410;DHT22;66590;50.734;4.246;2023-02-13T01:16:35;5.30;99.90
53410;DHT22;66590;50.734;4.246;2023-02-13T01:19:03;5.30;99.90
53410;DHT22;66590;50.734;4.246;2023-02-13T01:21:30;5.40;99.90
53410;DHT22;66590;50.734;4.246;2023-02-13T01:24:01;5.40;99.90
53410;DHT22;66590;50.734;4.246;2023-02-13T01:26:29;5.40;99.90
53410;DHT22;66590;50.734;4.246;2023-02-13T01:28:57;5.40;99.90
53410;DHT22;66590;50.734;4.246;2023-02-13T01:31:24;5.30;99.90
53410;DHT22;66590;50.734;4.246;2023-02-13T01:33:54;5.20;99.90
53410;DHT22;66590;50.734;4.246;2023-02-13T01:36:21;5.30;99.90
53410;DHT22;66590;50.734;4.246;2023-02-13T01:38:52;5.20;99.90
53410;DHT22;66590;50.734;4.246;2023-02-13T01:41:19;5.10;99.90
53410;DHT22;66590;50.734;4.246;2023-02-13T01:43:50;5.10;99.90
53410;DHT22;66590;50.734;4.246;2023-02-13T01:46:21;5.00;99.90
53410;DHT22;66590;50.734;4.246;2023-02-13T01:48:50;5.00;99.90
53410;DHT22;66590;50.734;4.246;2023-02-13T01:51:22;4.90;99.90
53410;DHT22;66590;50.734;4.246;2023-02-13T01:53:53;4.90;99.90
53410;DHT22;66590;50.734;4.246;2023-02-13T01:56:24;4.80;99.90
53410;DHT22;66590;50.734;4.246;2023-02-13T01:58:57;4.80;99.90
53410;DHT22;66590;50.734;4.246;2023-02-13T02:01:26;4.80;99.90
53410;DHT22;66590;50.734;4.246;2023-02-13T02:03:56;4.70;99.90
53410;DHT22;66590;50.734;4.246;2023-02-13T02:06:26;4.70;99.90
53410;DHT22;66590;50.734;4.246;2023-02-13T02:08:57;4.60;99.90
53410;DHT22;66590;50.734;4.246;2023-02-13T02:11:32;4.70;99.90
53410;DHT22;66590;50.734;4.246;2023-02-13T02:14:02;4.50;99.90
53410;DHT22;66590;50.734;4.246;2023-02-13T02:16:30;4.50;99.90
53410;DHT22;66590;50.734;4.246;2023-02-13T02:18:58;4.50;99.90
53410;DHT22;66590;50.734;4.246;2023-02-13T02:21:46;4.40;99.90
53410;DHT22;66590;50.734;4.246;2023-02-13T02:25:03;4.30;99.90
53410;DHT22;66590;50.734;4.246;2023-02-13T02:33:40;4.30;99.90
53410;DHT22;66590;50.734;4.246;2023-02-13T02:36:26;4.20;99.90
53410;DHT22;66590;50.734;4.246;2023-02-13T02:39:02;4.20;99.90
53410;DHT22;66590;50.734;4.246;2023-02-13T02:41:47;4.20;99.90
53410;DHT22;66590;50.734;4.246;2023-02-13T02:44:30;4.20;99.90
53410;DHT22;66590;50.734;4.246;2023-02-13T02:47:10;4.10;99.90
53410;DHT22;66590;50.734;4.246;2023-02-13T02:49:48;4.10;99.90
53410;DHT22;66590;50.734;4.246;2023-02-13T02:52:18;4.00;99.90
53410;DHT22;66590;50.734;4.246;2023-02-13T02:54:49;4.00;99.90
53410;DHT22;66590;50.734;4.246;2023-02-13T02:57:22;4.10;99.90
53410;DHT22;66590;50.734;4.246;2023-02-13T02:59:52;4.10;99.90
53410;DHT22;66590;50.734;4.246;2023-02-13T03:02:20;4.10;99.90
53410;DHT22;66590;50.734;4.246;2023-02-13T03:04:52;4.00;99.90
53410;DHT22;66590;50.734;4.246;2023-02-13T03:07:20;4.00;99.90
53410;DHT22;66590;50.734;4.246;2023-02-13T03:09:50;4.00;99.90
53410;DHT22;66590;50.734;4.246;2023-02-13T03:12:21;3.80;99.90
53410;DHT22;66590;50.734;4.246;2023-02-13T03:14:49;3.80;99.90
53410;DHT22;66590;50.734;4.246;2023-02-13T03:17:17;3.70;99.90
53410;DHT22;66590;50.734;4.246;2023-02-13T03:20:01;3.70;99.90
53410;DHT22;66590;50.734;4.246;2023-02-13T03:22:35;3.70;99.90
53410;DHT22;66590;50.734;4.246;2023-02-13T03:25:11;3.70;99.90
53410;DHT22;66590;50.734;4.246;2023-02-13T03:27:48;3.70;99.90
53410;DHT22;66590;50.734;4.246;2023-02-13T03:30:22;3.80;99.90
53410;DHT22;66590;50.734;4.246;2023-02-13T03:33:02;3.80;99.90
53410;DHT22;66590;50.734;4.246;2023-02-13T03:35:39;3.90;99.90
53410;DHT22;66590;50.734;4.246;2023-02-13T03:38:13;3.80;99.90
53410;DHT22;66590;50.734;4.246;2023-02-13T03:40:47;3.60;99.90
53410;DHT22;66590;50.734;4.246;2023-02-13T03:43:16;3.60;99.90
53410;DHT22;66590;50.734;4.246;2023-02-13T03:45:47;3.60;99.90
53410;DHT22;66590;50.734;4.246;2023-02-13T03:48:16;3.50;99.90
53410;DHT22;66590;50.734;4.246;2023-02-13T03:50:46;3.50;99.90
53410;DHT22;66590;50.734;4.246;2023-02-13T03:53:14;3.50;99.90
53410;DHT22;66590;50.734;4.246;2023-02-13T03:55:44;3.50;99.90
53410;DHT22;66590;50.734;4.246;2023-02-13T03:58:14;3.40;99.90
53410;DHT22;66590;50.734;4.246;2023-02-13T04:00:45;3.30;99.90
53410;DHT22;66590;50.734;4.246;2023-02-13T04:03:18;3.20;99.90
53410;DHT22;66590;50.734;4.246;2023-02-13T04:05:51;3.20;99.90
53410;DHT22;66590;50.734;4.246;2023-02-13T04:08:20;3.20;99.90
53410;DHT22;66590;50.734;4.246;2023-02-13T04:10:51;3.10;99.90
53410;DHT22;66590;50.734;4.246;2023-02-13T04:13:25;3.10;99.90
53410;DHT22;66590;50.734;4.246;2023-02-13T04:15:56;3.20;99.90
53410;DHT22;66590;50.734;4.246;2023-02-13T04:18:26;3.20;99.90
53410;DHT22;66590;50.734;4.246;2023-02-13T04:21:00;3.10;99.90
53410;DHT22;66590;50.734;4.246;2023-02-13T04:23:28;3.20;99.90
53410;DHT22;66590;50.734;4.246;2023-02-13T04:25:56;3.10;99.90
53410;DHT22;66590;50.734;4.246;2023-02-13T04:28:24;3.00;99.90
53410;DHT22;66590;50.734;4.246;2023-02-13T04:30:51;3.00;99.90
53410;DHT22;66590;50.734;4.246;2023-02-13T04:33:18;3.00;99.90
53410;DHT22;66590;50.734;4.246;2023-02-13T04:35:45;2.90;99.90
53410;DHT22;66590;50.734;4.246;2023-02-13T04:38:13;3.00;99.90
53410;DHT22;66590;50.734;4.246;2023-02-13T04:40:41;3.00;99.90
53410;DHT22;66590;50.734;4.246;2023-02-13T04:43:08;2.90;99.90
53410;DHT22;66590;50.734;4.246;2023-02-13T04:45:34;2.80;99.90
53410;DHT22;66590;50.734;4.246;2023-02-13T04:48:02;2.90;99.90
53410;DHT22;66590;50.734;4.246;2023-02-13T04:50:29;2.90;99.90
53410;DHT22;66590;50.734;4.246;2023-02-13T04:52:57;2.80;99.90
53410;DHT22;66590;50.734;4.246;2023-02-13T04:55:26;2.70;99.90
53410;DHT22;66590;50.734;4.246;2023-02-13T04:57:55;2.80;99.90
53410;DHT22;66590;50.734;4.246;2023-02-13T05:00:25;2.70;99.90
53410;DHT22;66590;50.734;4.246;2023-02-13T05:02:52;2.70;99.90
53410;DHT22;66590;50.734;4.246;2023-02-13T05:05:19;2.90;99.90
53410;DHT22;66590;50.734;4.246;2023-02-13T05:07:47;2.90;99.90
53410;DHT22;66590;50.734;4.246;2023-02-13T05:10:13;2.80;99.90
53410;DHT22;66590;50.734;4.246;2023-02-13T05:12:42;2.70;99.90
53410;DHT22;66590;50.734;4.246;2023-02-13T05:15:09;2.60;99.90
53410;DHT22;66590;50.734;4.246;2023-02-13T05:17:36;2.50;99.90
53410;DHT22;66590;50.734;4.246;2023-02-13T05:20:04;2.50;99.90
53410;DHT22;66590;50.734;4.246;2023-02-13T05:22:31;2.50;99.90
53410;DHT22;66590;50.734;4.246;2023-02-13T05:24:58;2.60;99.90
53410;DHT22;66590;50.734;4.246;2023-02-13T05:27:25;2.70;99.90
53410;DHT22;66590;50.734;4.246;2023-02-13T05:29:53;2.70;99.90
53410;DHT22;66590;50.734;4.246;2023-02-13T05:32:23;2.70;99.90
53410;DHT22;66590;50.734;4.246;2023-02-13T05:34:51;2.60;99.90
53410;DHT22;66590;50.734;4.246;2023-02-13T05:37:18;2.70;99.90
53410;DHT22;66590;50.734;4.246;2023-02-13T05:39:45;2.70;99.90
53410;DHT22;66590;50.734;4.246;2023-02-13T05:42:12;2.70;99.90
53410;DHT22;66590;50.734;4.246;2023-02-13T05:44:39;2.50;99.90
53410;DHT22;66590;50.734;4.246;2023-02-13T05:47:13;2.50;99.90
53410;DHT22;66590;50.734;4.246;2023-02-13T05:49:40;2.60;99.90
53410;DHT22;66590;50.734;4.246;2023-02-13T05:52:07;2.60;99.90
53410;DHT22;66590;50.734;4.246;2023-02-13T05:54:34;2.70;99.90
53410;DHT22;66590;50.734;4.246;2023-02-13T05:57:02;2.70;99.90
53410;DHT22;66590;50.734;4.246;2023-02-13T05:59:29;2.70;99.90
53410;DHT22;66590;50.734;4.246;2023-02-13T06:01:56;2.70;99.90
53410;DHT22;66590;50.734;4.246;2023-02-13T06:04:24;2.70;99.90
53410;DHT22;66590;50.734;4.246;2023-02-13T06:06:52;2.70;99.90
53410;DHT22;66590;50.734;4.246;2023-02-13T06:09:19;2.70;99.90
53410;DHT22;66590;50.734;4.246;2023-02-13T06:11:46;2.60;99.90
53410;DHT22;66590;50.734;4.246;2023-02-13T06:14:14;2.50;99.90
53410;DHT22;66590;50.734;4.246;2023-02-13T06:16:41;2.50;99.90
53410;DHT22;66590;50.734;4.246;2023-02-13T06:19:09;2.40;99.90
53410;DHT22;66590;50.734;4.246;2023-02-13T06:21:37;2.40;99.90
53410;DHT22;66590;50.734;4.246;2023-02-13T06:24:05;2.30;99.90
53410;DHT22;66590;50.734;4.246;2023-02-13T06:26:32;2.30;99.90
53410;DHT22;66590;50.734;4.246;2023-02-13T06:28:59;2.40;99.90
53410;DHT22;66590;50.734;4.246;2023-02-13T06:31:26;2.40;99.90
53410;DHT22;66590;50.734;4.246;2023-02-13T06:33:53;2.50;99.90
53410;DHT22;66590;50.734;4.246;2023-02-13T06:36:20;2.40;99.90
53410;DHT22;66590;50.734;4.246;2023-02-13T06:38:49;2.50;99.90
53410;DHT22;66590;50.734;4.246;2023-02-13T06:41:16;2.50;99.90
53410;DHT22;66590;50.734;4.246;2023-02-13T06:43:43;2.60;99.90
53410;DHT22;66590;50.734;4.246;2023-02-13T06:46:10;2.50;99.90
53410;DHT22;66590;50.734;4.246;2023-02-13T06:48:37;2.40;99.90
53410;DHT22;66590;50.734;4.246;2023-02-13T06:51:04;2.40;99.90
53410;DHT22;66590;50.734;4.246;2023-02-13T06:53:32;2.40;99.90
53410;DHT22;66590;50.734;4.246;2023-02-13T06:56:05;2.50;99.90
53410;DHT22;66590;50.734;4.246;2023-02-13T06:58:38;2.50;99.90
53410;DHT22;66590;50.734;4.246;2023-02-13T07:01:05;2.60;99.90
53410;DHT22;66590;50.734;4.246;2023-02-13T07:03:32;2.60;99.90
53410;DHT22;66590;50.734;4.246;2023-02-13T07:06:00;2.70;99.90
53410;DHT22;66590;50.734;4.246;2023-02-13T07:08:27;2.70;99.90
53410;DHT22;66590;50.734;4.246;2023-02-13T07:10:54;2.70;99.90
53410;DHT22;66590;50.734;4.246;2023-02-13T07:13:23;2.80;99.90
53410;DHT22;66590;50.734;4.246;2023-02-13T07:15:50;2.90;99.90
53410;DHT22;66590;50.734;4.246;2023-02-13T07:18:17;2.80;99.90
53410;DHT22;66590;50.734;4.246;2023-02-13T07:20:45;2.80;99.90
53410;DHT22;66590;50.734;4.246;2023-02-13T07:23:14;2.70;99.90
53410;DHT22;66590;50.734;4.246;2023-02-13T07:25:41;2.60;99.90
53410;DHT22;66590;50.734;4.246;2023-02-13T07:28:08;2.70;99.90
53410;DHT22;66590;50.734;4.246;2023-02-13T07:30:45;2.80;99.90
53410;DHT22;66590;50.734;4.246;2023-02-13T07:33:12;2.80;99.90
53410;DHT22;66590;50.734;4.246;2023-02-13T07:35:44;2.70;99.90
53410;DHT22;66590;50.734;4.246;2023-02-13T07:38:14;2.60;99.90
53410;DHT22;66590;50.734;4.246;2023-02-13T07:40:44;2.80;99.90
53410;DHT22;66590;50.734;4.246;2023-02-13T07:43:12;2.80;99.90
53410;DHT22;66590;50.734;4.246;2023-02-13T07:45:43;2.90;99.90
53410;DHT22;66590;50.734;4.246;2023-02-13T07:48:10;3.00;99.90
53410;DHT22;66590;50.734;4.246;2023-02-13T07:50:37;3.00;99.90
53410;DHT22;66590;50.734;4.246;2023-02-13T07:53:07;3.10;99.90
53410;DHT22;66590;50.734;4.246;2023-02-13T07:55:35;3.10;99.90
53410;DHT22;66590;50.734;4.246;2023-02-13T07:58:03;3.00;99.90
53410;DHT22;66590;50.734;4.246;2023-02-13T08:00:30;3.00;99.90
53410;DHT22;66590;50.734;4.246;2023-02-13T08:02:59;3.10;99.90
53410;DHT22;66590;50.734;4.246;2023-02-13T08:05:27;3.10;99.90
53410;DHT22;66590;50.734;4.246;2023-02-13T08:07:54;3.20;99.90
53410;DHT22;66590;50.734;4.246;2023-02-13T08:10:21;3.20;99.90
53410;DHT22;66590;50.734;4.246;2023-02-13T08:12:49;3.10;99.90
53410;DHT22;66590;50.734;4.246;2023-02-13T08:15:18;3.20;99.90
53410;DHT22;66590;50.734;4.246;2023-02-13T08:17:45;3.20;99.90
53410;DHT22;66590;50.734;4.246;2023-02-13T08:20:13;3.30;99.90
53410;DHT22;66590;50.734;4.246;2023-02-13T08:22:41;3.40;99.90
53410;DHT22;66590;50.734;4.246;2023-02-13T08:25:08;3.40;99.90
53410;DHT22;66590;50.734;4.246;2023-02-13T08:27:35;3.40;99.90
53410;DHT22;66590;50.734;4.246;2023-02-13T08:30:03;3.50;99.90
53410;DHT22;66590;50.734;4.246;2023-02-13T08:32:30;3.50;99.90
53410;DHT22;66590;50.734;4.246;2023-02-13T08:35:19;3.60;99.90
53410;DHT22;66590;50.734;4.246;2023-02-13T08:37:46;3.70;99.90
53410;DHT22;66590;50.734;4.246;2023-02-13T08:40:13;3.70;99.90
53410;DHT22;66590;50.734;4.246;2023-02-13T08:42:40;3.70;99.90
53410;DHT22;66590;50.734;4.246;2023-02-13T08:45:08;3.80;99.90
53410;DHT22;66590;50.734;4.246;2023-02-13T08:47:35;3.90;99.90
53410;DHT22;66590;50.734;4.246;2023-02-13T08:50:02;3.90;99.90
53410;DHT22;66590;50.734;4.246;2023-02-13T08:52:31;4.00;99.90
53410;DHT22;66590;50.734;4.246;2023-02-13T08:54:58;4.00;99.90
53410;DHT22;66590;50.734;4.246;2023-02-13T08:57:25;4.00;99.90
53410;DHT22;66590;50.734;4.246;2023-02-13T08:59:53;4.10;99.90
53410;DHT22;66590;50.734;4.246;2023-02-13T09:02:20;4.20;99.90
53410;DHT22;66590;50.734;4.246;2023-02-13T09:04:47;4.20;99.90
53410;DHT22;66590;50.734;4.246;2023-02-13T09:07:14;4.30;99.90
53410;DHT22;66590;50.734;4.246;2023-02-13T09:09:42;4.40;99.90
53410;DHT22;66590;50.734;4.246;2023-02-13T09:12:09;4.50;99.90
53410;DHT22;66590;50.734;4.246;2023-02-13T09:14:36;4.60;99.90
53410;DHT22;66590;50.734;4.246;2023-02-13T09:17:03;4.70;99.90
53410;DHT22;66590;50.734;4.246;2023-02-13T09:19:30;4.70;99.90
53410;DHT22;66590;50.734;4.246;2023-02-13T09:21:57;4.70;99.90
53410;DHT22;66590;50.734;4.246;2023-02-13T09:24:25;4.80;99.90
53410;DHT22;66590;50.734;4.246;2023-02-13T09:26:53;4.90;99.90
53410;DHT22;66590;50.734;4.246;2023-02-13T09:29:20;5.00;99.90
53410;DHT22;66590;50.734;4.246;2023-02-13T09:31:47;5.00;99.90
53410;DHT22;66590;50.734;4.246;2023-02-13T09:34:15;5.10;99.90
53410;DHT22;66590;50.734;4.246;2023-02-13T09:36:41;5.20;99.90
53410;DHT22;66590;50.734;4.246;2023-02-13T09:39:08;5.20;99.90
53410;DHT22;66590;50.734;4.246;2023-02-13T09:41:37;5.40;99.90
53410;DHT22;66590;50.734;4.246;2023-02-13T09:44:12;5.50;99.90
53410;DHT22;66590;50.734;4.246;2023-02-13T09:46:41;5.70;99.90
53410;DHT22;66590;50.734;4.246;2023-02-13T09:49:12;5.80;99.90
53410;DHT22;66590;50.734;4.246;2023-02-13T09:51:40;6.00;99.90
53410;DHT22;66590;50.734;4.246;2023-02-13T09:54:14;6.30;99.90
53410;DHT22;66590;50.734;4.246;2023-02-13T09:56:47;6.50;99.90
53410;DHT22;66590;50.734;4.246;2023-02-13T09:59:36;6.70;99.90
53410;DHT22;66590;50.734;4.246;2023-02-13T10:02:18;6.90;99.90
53410;DHT22;66590;50.734;4.246;2023-02-13T10:04:51;7.00;99.90
53410;DHT22;66590;50.734;4.246;2023-02-13T10:07:25;7.30;99.90
53410;DHT22;66590;50.734;4.246;2023-02-13T10:09:59;7.60;99.90
53410;DHT22;66590;50.734;4.246;2023-02-13T10:12:54;7.80;99.90
53410;DHT22;66590;50.734;4.246;2023-02-13T10:15:30;8.20;99.90
53410;DHT22;66590;50.734;4.246;2023-02-13T10:18:03;8.60;99.90
53410;DHT22;66590;50.734;4.246;2023-02-13T10:20:35;8.90;99.90
53410;DHT22;66590;50.734;4.246;2023-02-13T10:23:15;9.10;99.90
53410;DHT22;66590;50.734;4.246;2023-02-13T10:25:47;9.30;99.90
53410;DHT22;66590;50.734;4.246;2023-02-13T10:28:21;9.60;99.90
53410;DHT22;66590;50.734;4.246;2023-02-13T10:30:56;9.90;99.90
53410;DHT22;66590;50.734;4.246;2023-02-13T10:33:28;9.80;99.90
53410;DHT22;66590;50.734;4.246;2023-02-13T10:36:00;9.70;99.90
53410;DHT22;66590;50.734;4.246;2023-02-13T10:38:39;10.00;99.90
53410;DHT22;66590;50.734;4.246;2023-02-13T10:41:23;10.10;99.90
53410;DHT22;66590;50.734;4.246;2023-02-13T10:44:11;10.30;99.90
53410;DHT22;66590;50.734;4.246;2023-02-13T10:46:52;10.40;99.90
53410;DHT22;66590;50.734;4.246;2023-02-13T10:49:34;10.70;99.90
53410;DHT22;66590;50.734;4.246;2023-02-13T10:52:13;10.80;99.90
53410;DHT22;66590;50.734;4.246;2023-02-13T10:55:09;10.90;99.90
53410;DHT22;66590;50.734;4.246;2023-02-13T10:57:52;11.10;99.90
53410;DHT22;66590;50.734;4.246;2023-02-13T11:00:26;11.00;99.90
53410;DHT22;66590;50.734;4.246;2023-02-13T11:02:57;10.80;99.90
53410;DHT22;66590;50.734;4.246;2023-02-13T11:05:30;11.00;99.90
53410;DHT22;66590;50.734;4.246;2023-02-13T11:07:58;11.20;99.90
53410;DHT22;66590;50.734;4.246;2023-02-13T11:10:26;11.30;99.90
53410;DHT22;66590;50.734;4.246;2023-02-13T11:12:54;11.40;99.90
53410;DHT22;66590;50.734;4.246;2023-02-13T11:15:24;11.30;99.90
53410;DHT22;66590;50.734;4.246;2023-02-13T11:17:53;11.30;99.90
53410;DHT22;66590;50.734;4.246;2023-02-13T11:20:28;11.20;99.90
53410;DHT22;66590;50.734;4.246;2023-02-13T11:22:57;11.30;99.90
53410;DHT22;66590;50.734;4.246;2023-02-13T11:25:40;11.50;99.90
53410;DHT22;66590;50.734;4.246;2023-02-13T11:28:13;11.60;99.90
53410;DHT22;66590;50.734;4.246;2023-02-13T11:30:41;11.90;99.90
53410;DHT22;66590;50.734;4.246;2023-02-13T11:33:23;12.10;99.90
53410;DHT22;66590;50.734;4.246;2023-02-13T11:36:04;12.20;99.90
53410;DHT22;66590;50.734;4.246;2023-02-13T11:38:32;12.30;99.90
53410;DHT22;66590;50.734;4.246;2023-02-13T11:41:06;12.40;99.90
53410;DHT22;66590;50.734;4.246;2023-02-13T11:43:36;12.30;99.90
53410;DHT22;66590;50.734;4.246;2023-02-13T11:46:12;12.20;99.90
53410;DHT22;66590;50.734;4.246;2023-02-13T11:48:43;12.20;99.90
53410;DHT22;66590;50.734;4.246;2023-02-13T11:51:34;12.30;99.90
53410;DHT22;66590;50.734;4.246;2023-02-13T11:54:02;12.20;99.90
53410;DHT22;66590;50.734;4.246;2023-02-13T11:56:46;12.50;99.90
53410;DHT22;66590;50.734;4.246;2023-02-13T11:59:32;12.80;99.90
53410;DHT22;66590;50.734;4.246;2023-02-13T12:02:15;12.90;99.90
53410;DHT22;66590;50.734;4.246;2023-02-13T12:04:44;12.80;99.90
53410;DHT22;66590;50.734;4.246;2023-02-13T12:07:28;12.70;99.90
53410;DHT22;66590;50.734;4.246;2023-02-13T12:09:59;12.80;99.90
53410;DHT22;66590;50.734;4.246;2023-02-13T12:12:32;12.90;99.90
53410;DHT22;66590;50.734;4.246;2023-02-13T12:15:09;12.60;99.90
53410;DHT22;66590;50.734;4.246;2023-02-13T12:17:43;12.70;99.90
53410;DHT22;66590;50.734;4.246;2023-02-13T12:20:12;12.70;99.90
53410;DHT22;66590;50.734;4.246;2023-02-13T12:22:51;12.80;99.90
53410;DHT22;66590;50.734;4.246;2023-02-13T12:25:31;13.00;99.90
53410;DHT22;66590;50.734;4.246;2023-02-13T12:28:12;13.10;99.90
53410;DHT22;66590;50.734;4.246;2023-02-13T12:30:57;13.10;99.90
53410;DHT22;66590;50.734;4.246;2023-02-13T12:36:20;13.20;99.90
53410;DHT22;66590;50.734;4.246;2023-02-13T12:39:03;13.00;99.90
53410;DHT22;66590;50.734;4.246;2023-02-13T12:41:40;12.90;99.90
53410;DHT22;66590;50.734;4.246;2023-02-13T12:44:42;12.90;99.90
53410;DHT22;66590;50.734;4.246;2023-02-13T12:47:17;13.00;99.90
53410;DHT22;66590;50.734;4.246;2023-02-13T12:49:57;12.90;99.90
53410;DHT22;66590;50.734;4.246;2023-02-13T12:52:39;12.80;99.90
53410;DHT22;66590;50.734;4.246;2023-02-13T12:55:50;12.80;99.90
53410;DHT22;66590;50.734;4.246;2023-02-13T13:01:44;13.00;99.90
53410;DHT22;66590;50.734;4.246;2023-02-13T13:04:22;12.90;99.90
53410;DHT22;66590;50.734;4.246;2023-02-13T13:07:18;12.90;99.90
53410;DHT22;66590;50.734;4.246;2023-02-13T13:10:16;13.00;99.90
53410;DHT22;66590;50.734;4.246;2023-02-13T13:12:52;12.90;99.90
53410;DHT22;66590;50.734;4.246;2023-02-13T13:15:29;12.80;99.90
53410;DHT22;66590;50.734;4.246;2023-02-13T13:18:12;12.90;99.90
53410;DHT22;66590;50.734;4.246;2023-02-13T13:21:07;12.80;99.90
53410;DHT22;66590;50.734;4.246;2023-02-13T13:23:41;12.90;99.90
53410;DHT22;66590;50.734;4.246;2023-02-13T13:26:15;12.80;99.90
53410;DHT22;66590;50.734;4.246;2023-02-13T13:28:47;12.90;99.90
53410;DHT22;66590;50.734;4.246;2023-02-13T13:31:15;12.90;99.90
53410;DHT22;66590;50.734;4.246;2023-02-13T13:33:45;12.90;99.90
53410;DHT22;66590;50.734;4.246;2023-02-13T13:36:18;12.60;99.90
53410;DHT22;66590;50.734;4.246;2023-02-13T13:38:52;12.60;99.90
53410;DHT22;66590;50.734;4.246;2023-02-13T13:41:29;12.80;99.90
53410;DHT22;66590;50.734;4.246;2023-02-13T13:46:52;12.90;99.90
53410;DHT22;66590;50.734;4.246;2023-02-13T13:49:34;12.90;99.90
53410;DHT22;66590;50.734;4.246;2023-02-13T13:52:20;12.80;99.90
53410;DHT22;66590;50.734;4.246;2023-02-13T13:54:47;12.90;99.90
53410;DHT22;66590;50.734;4.246;2023-02-13T13:57:14;12.80;99.90
53410;DHT22;66590;50.734;4.246;2023-02-13T14:00:21;12.70;99.90
53410;DHT22;66590;50.734;4.246;2023-02-13T14:02:50;12.70;99.90
53410;DHT22;66590;50.734;4.246;2023-02-13T14:05:24;12.70;99.90
53410;DHT22;66590;50.734;4.246;2023-02-13T14:07:53;12.70;99.90
53410;DHT22;66590;50.734;4.246;2023-02-13T14:13:30;12.80;99.90
53410;DHT22;66590;50.734;4.246;2023-02-13T14:15:59;12.70;99.90
53410;DHT22;66590;50.734;4.246;2023-02-13T14:18:27;12.80;99.90
53410;DHT22;66590;50.734;4.246;2023-02-13T14:20:58;12.90;99.90
53410;DHT22;66590;50.734;4.246;2023-02-13T14:23:44;12.80;99.90
53410;DHT22;66590;50.734;4.246;2023-02-13T14:26:20;12.80;99.90
53410;DHT22;66590;50.734;4.246;2023-02-13T14:28:58;12.90;99.90
53410;DHT22;66590;50.734;4.246;2023-02-13T14:31:30;12.90;99.90
53410;DHT22;66590;50.734;4.246;2023-02-13T14:34:00;12.90;99.90
53410;DHT22;66590;50.734;4.246;2023-02-13T14:36:30;12.90;99.90
53410;DHT22;66590;50.734;4.246;2023-02-13T14:39:01;12.90;99.90
53410;DHT22;66590;50.734;4.246;2023-02-13T14:41:44;12.80;99.90
53410;DHT22;66590;50.734;4.246;2023-02-13T14:44:17;12.80;99.90
53410;DHT22;66590;50.734;4.246;2023-02-13T14:46:47;12.80;99.90
53410;DHT22;66590;50.734;4.246;2023-02-13T14:49:19;12.70;99.90
53410;DHT22;66590;50.734;4.246;2023-02-13T14:51:49;12.60;99.90
53410;DHT22;66590;50.734;4.246;2023-02-13T14:54:22;12.60;99.90
53410;DHT22;66590;50.734;4.246;2023-02-13T14:56:52;12.70;99.90
53410;DHT22;66590;50.734;4.246;2023-02-13T14:59:22;12.60;99.90
53410;DHT22;66590;50.734;4.246;2023-02-13T15:01:54;12.60;99.90
53410;DHT22;66590;50.734;4.246;2023-02-13T15:04:29;12.60;99.90
53410;DHT22;66590;50.734;4.246;2023-02-13T15:06:58;12.70;99.90
53410;DHT22;66590;50.734;4.246;2023-02-13T15:09:30;12.60;99.90
53410;DHT22;66590;50.734;4.246;2023-02-13T15:11:58;12.60;99.90
53410;DHT22;66590;50.734;4.246;2023-02-13T15:14:30;12.70;99.90
53410;DHT22;66590;50.734;4.246;2023-02-13T15:17:04;12.70;99.90
53410;DHT22;66590;50.734;4.246;2023-02-13T15:19:34;12.80;99.90
53410;DHT22;66590;50.734;4.246;2023-02-13T15:22:04;12.80;99.90
53410;DHT22;66590;50.734;4.246;2023-02-13T15:24:37;12.80;99.90
53410;DHT22;66590;50.734;4.246;2023-02-13T15:27:06;12.80;99.90
53410;DHT22;66590;50.734;4.246;2023-02-13T15:29:33;12.80;99.90
53410;DHT22;66590;50.734;4.246;2023-02-13T15:32:26;12.70;99.90
53410;DHT22;66590;50.734;4.246;2023-02-13T15:34:53;12.70;99.90
53410;DHT22;66590;50.734;4.246;2023-02-13T15:37:21;12.80;99.90
53410;DHT22;66590;50.734;4.246;2023-02-13T15:39:48;12.70;99.90
53410;DHT22;66590;50.734;4.246;2023-02-13T15:42:16;12.60;99.90
53410;DHT22;66590;50.734;4.246;2023-02-13T15:44:45;12.60;99.90
53410;DHT22;66590;50.734;4.246;2023-02-13T15:47:17;12.60;99.90
53410;DHT22;66590;50.734;4.246;2023-02-13T15:49:49;12.70;99.90
53410;DHT22;66590;50.734;4.246;2023-02-13T15:52:19;12.60;99.90
53410;DHT22;66590;50.734;4.246;2023-02-13T15:54:49;12.60;99.90
53410;DHT22;66590;50.734;4.246;2023-02-13T15:57:16;12.70;99.90
53410;DHT22;66590;50.734;4.246;2023-02-13T15:59:44;12.70;99.90
53410;DHT22;66590;50.734;4.246;2023-02-13T16:02:13;12.50;99.90
53410;DHT22;66590;50.734;4.246;2023-02-13T16:04:42;12.60;99.90
53410;DHT22;66590;50.734;4.246;2023-02-13T16:07:12;12.70;99.90
53410;DHT22;66590;50.734;4.246;2023-02-13T16:09:40;12.60;99.90
53410;DHT22;66590;50.734;4.246;2023-02-13T16:12:16;12.50;99.90
53410;DHT22;66590;50.734;4.246;2023-02-13T16:14:48;12.40;99.90
53410;DHT22;66590;50.734;4.246;2023-02-13T16:17:23;12.30;99.90
53410;DHT22;66590;50.734;4.246;2023-02-13T16:19:55;12.20;99.90
53410;DHT22;66590;50.734;4.246;2023-02-13T16:22:36;12.10;99.90
53410;DHT22;66590;50.734;4.246;2023-02-13T16:25:21;12.10;99.90